気象予報士の航空気象 TAFから見る降雪予報

*All archives   *Admin

スポンサーサイト

上記の広告は1ヶ月以上更新のないブログに表示されています。
新しい記事を書く事で広告が消せます。
--:--  |  スポンサー広告  |  EDIT  |  Top↑

2010.02.17 (Wed)

TAFから見る降雪予報

 関東は雪が積もるのでしょうか?


降るのは確実なんですけど。


羽田のTAF


RJTT 170846Z 1709/1812 04010KT 9999 FEW015 BKN025
TEMPO 1715/1721 3000 -SNRA BR BKN009 BKN012
BECMG 1803/1806 10010KT
BECMG 1809/1812 02012KT

日が変わってから雪の予報が出ています。


成田のTAF


RJAA 171444Z 1715/1818 34007KT 8000 -SNRA SCT015 BKN030
BECMG 1716/1718 4000 -SNRA BKN008 BKN020
TEMPO 1718/1723 1500 -SN BKN006 BKN010
BECMG 1800/1803 8000 NSW BKN012 BKN020


成田空港は日が変わって雪が降り始め、午前1時から3時までみぞれ。


午前3時から8時までTEMPOという一時予報ですが、視程1500mからそれなりの強度の降雪の予報が出ています。


明日起きたら、真っ白、頭ん中も真っ白!なんてね。



ブログランキングに参加しています。
にほんブログ村 環境ブログ 天気・気象学へ
にほんブログ村
応援クリックをおねがします。


以下、アフィリエイトサイトです。




スポンサーサイト
23:55  |  気象・天気  |  TB(0)  |  CM(0)  |  EDIT  |  Top↑

コメントを投稿する


 管理者だけに表示  (非公開コメント投稿可能)

▲PageTop

この記事のトラックバックURL

→http://weathereucalyptus.blog115.fc2.com/tb.php/396-9aa1ff03
この記事にトラックバックする(FC2ブログユーザー)

この記事へのトラックバック

▲PageTop

 | BLOGTOP | 
上記広告は1ヶ月以上更新のないブログに表示されています。新しい記事を書くことで広告を消せます。